sensor_id;sensor_type;location;lat;lon;timestamp;P1;durP1;ratioP1;P2;durP2;ratioP2
60426;SDS011;46274;47.168;27.604;2023-04-01T00:02:58;9.90;;;4.13;;
60426;SDS011;46274;47.168;27.604;2023-04-01T00:09:05;9.17;;;4.20;;
60426;SDS011;46274;47.168;27.604;2023-04-01T00:15:11;7.60;;;4.47;;
60426;SDS011;46274;47.168;27.604;2023-04-01T00:21:15;8.60;;;4.73;;
60426;SDS011;46274;47.168;27.604;2023-04-01T00:27:23;9.07;;;4.70;;
60426;SDS011;46274;47.168;27.604;2023-04-01T00:33:40;8.00;;;4.13;;
60426;SDS011;46274;47.168;27.604;2023-04-01T00:39:50;8.77;;;4.27;;
60426;SDS011;46274;47.168;27.604;2023-04-01T00:45:52;7.63;;;4.40;;
60426;SDS011;46274;47.168;27.604;2023-04-01T00:52:02;10.43;;;4.90;;
60426;SDS011;46274;47.168;27.604;2023-04-01T00:58:08;8.37;;;4.97;;
60426;SDS011;46274;47.168;27.604;2023-04-01T01:10:33;9.67;;;4.43;;
60426;SDS011;46274;47.168;27.604;2023-04-01T01:16:43;14.10;;;6.80;;
60426;SDS011;46274;47.168;27.604;2023-04-01T01:35:35;14.30;;;5.90;;
60426;SDS011;46274;47.168;27.604;2023-04-01T01:41:45;11.30;;;5.57;;
60426;SDS011;46274;47.168;27.604;2023-04-01T01:47:58;15.67;;;6.67;;
60426;SDS011;46274;47.168;27.604;2023-04-01T01:54:13;13.47;;;5.77;;
60426;SDS011;46274;47.168;27.604;2023-04-01T02:00:16;13.10;;;6.23;;
60426;SDS011;46274;47.168;27.604;2023-04-01T02:06:23;15.10;;;6.93;;
60426;SDS011;46274;47.168;27.604;2023-04-01T02:12:32;14.33;;;7.10;;
60426;SDS011;46274;47.168;27.604;2023-04-01T02:18:45;11.67;;;5.93;;
60426;SDS011;46274;47.168;27.604;2023-04-01T02:25:15;10.60;;;5.80;;
60426;SDS011;46274;47.168;27.604;2023-04-01T02:31:32;9.93;;;5.13;;
60426;SDS011;46274;47.168;27.604;2023-04-01T02:37:50;15.63;;;5.50;;
60426;SDS011;46274;47.168;27.604;2023-04-01T02:44:04;15.00;;;6.43;;
60426;SDS011;46274;47.168;27.604;2023-04-01T02:50:14;10.43;;;6.07;;
60426;SDS011;46274;47.168;27.604;2023-04-01T02:56:21;20.60;;;6.90;;
60426;SDS011;46274;47.168;27.604;2023-04-01T03:02:33;11.93;;;5.93;;
60426;SDS011;46274;47.168;27.604;2023-04-01T03:08:41;10.27;;;5.20;;
60426;SDS011;46274;47.168;27.604;2023-04-01T03:14:48;15.53;;;7.03;;
60426;SDS011;46274;47.168;27.604;2023-04-01T03:20:54;12.57;;;6.33;;
60426;SDS011;46274;47.168;27.604;2023-04-01T03:27:06;11.53;;;5.60;;
60426;SDS011;46274;47.168;27.604;2023-04-01T03:33:10;11.70;;;6.50;;
60426;SDS011;46274;47.168;27.604;2023-04-01T03:39:12;13.97;;;5.53;;
60426;SDS011;46274;47.168;27.604;2023-04-01T03:45:49;14.20;;;6.63;;
60426;SDS011;46274;47.168;27.604;2023-04-01T03:52:09;11.93;;;6.17;;
60426;SDS011;46274;47.168;27.604;2023-04-01T03:58:24;9.50;;;4.70;;
60426;SDS011;46274;47.168;27.604;2023-04-01T04:04:35;13.67;;;5.83;;
60426;SDS011;46274;47.168;27.604;2023-04-01T04:10:44;17.37;;;7.03;;
60426;SDS011;46274;47.168;27.604;2023-04-01T04:17:05;14.17;;;6.57;;
60426;SDS011;46274;47.168;27.604;2023-04-01T04:23:16;9.63;;;5.37;;
60426;SDS011;46274;47.168;27.604;2023-04-01T04:29:23;18.53;;;8.90;;
60426;SDS011;46274;47.168;27.604;2023-04-01T04:35:48;13.37;;;6.80;;
60426;SDS011;46274;47.168;27.604;2023-04-01T04:41:57;19.17;;;7.53;;
60426;SDS011;46274;47.168;27.604;2023-04-01T04:48:07;14.00;;;7.20;;
60426;SDS011;46274;47.168;27.604;2023-04-01T04:54:20;12.33;;;5.93;;
60426;SDS011;46274;47.168;27.604;2023-04-01T05:00:45;51.70;;;22.67;;
60426;SDS011;46274;47.168;27.604;2023-04-01T05:06:54;26.27;;;11.70;;
60426;SDS011;46274;47.168;27.604;2023-04-01T05:13:02;19.50;;;8.80;;
60426;SDS011;46274;47.168;27.604;2023-04-01T05:19:23;25.83;;;9.67;;
60426;SDS011;46274;47.168;27.604;2023-04-01T05:25:41;20.77;;;8.73;;
60426;SDS011;46274;47.168;27.604;2023-04-01T05:31:45;16.17;;;8.77;;
60426;SDS011;46274;47.168;27.604;2023-04-01T05:37:59;20.07;;;10.60;;
60426;SDS011;46274;47.168;27.604;2023-04-01T05:44:19;13.60;;;8.00;;
60426;SDS011;46274;47.168;27.604;2023-04-01T05:50:46;22.27;;;10.77;;
60426;SDS011;46274;47.168;27.604;2023-04-01T05:56:59;29.13;;;12.40;;
60426;SDS011;46274;47.168;27.604;2023-04-01T06:03:15;33.57;;;12.23;;
60426;SDS011;46274;47.168;27.604;2023-04-01T06:10:08;32.23;;;12.97;;
60426;SDS011;46274;47.168;27.604;2023-04-01T07:01:17;69.00;;;29.20;;
60426;SDS011;46274;47.168;27.604;2023-04-01T07:08:48;45.07;;;19.83;;
60426;SDS011;46274;47.168;27.604;2023-04-01T07:16:27;27.07;;;12.87;;
60426;SDS011;46274;47.168;27.604;2023-04-01T07:23:30;32.47;;;16.50;;
60426;SDS011;46274;47.168;27.604;2023-04-01T08:07:05;25.23;;;11.10;;
60426;SDS011;46274;47.168;27.604;2023-04-01T10:59:35;22.23;;;10.80;;
60426;SDS011;46274;47.168;27.604;2023-04-01T11:26:45;21.07;;;11.27;;
60426;SDS011;46274;47.168;27.604;2023-04-01T11:33:26;20.20;;;10.97;;
60426;SDS011;46274;47.168;27.604;2023-04-01T12:13:02;17.40;;;9.80;;
60426;SDS011;46274;47.168;27.604;2023-04-01T13:32:16;25.27;;;13.70;;
60426;SDS011;46274;47.168;27.604;2023-04-01T14:05:36;21.70;;;11.47;;
60426;SDS011;46274;47.168;27.604;2023-04-01T14:50:21;26.23;;;14.10;;
60426;SDS011;46274;47.168;27.604;2023-04-01T14:57:10;24.03;;;13.47;;
60426;SDS011;46274;47.168;27.604;2023-04-01T15:03:48;24.53;;;13.07;;
60426;SDS011;46274;47.168;27.604;2023-04-01T15:10:40;28.60;;;12.73;;
60426;SDS011;46274;47.168;27.604;2023-04-01T15:55:43;15.87;;;7.20;;
60426;SDS011;46274;47.168;27.604;2023-04-01T16:22:09;10.83;;;4.37;;
60426;SDS011;46274;47.168;27.604;2023-04-01T16:35:50;8.28;;;4.40;;
60426;SDS011;46274;47.168;27.604;2023-04-01T16:54:18;26.07;;;11.53;;
60426;SDS011;46274;47.168;27.604;2023-04-01T17:00:55;24.23;;;11.97;;
60426;SDS011;46274;47.168;27.604;2023-04-01T17:26:04;12.43;;;8.00;;
60426;SDS011;46274;47.168;27.604;2023-04-01T17:32:31;20.10;;;8.83;;
60426;SDS011;46274;47.168;27.604;2023-04-01T17:38:49;13.33;;;7.40;;
60426;SDS011;46274;47.168;27.604;2023-04-01T17:51:53;11.70;;;6.07;;
60426;SDS011;46274;47.168;27.604;2023-04-01T18:31:45;6.33;;;3.70;;
60426;SDS011;46274;47.168;27.604;2023-04-01T18:38:30;5.00;;;2.87;;
60426;SDS011;46274;47.168;27.604;2023-04-01T18:59:17;4.07;;;2.23;;
60426;SDS011;46274;47.168;27.604;2023-04-01T19:05:59;5.63;;;2.30;;
60426;SDS011;46274;47.168;27.604;2023-04-01T19:20:26;5.67;;;2.13;;
60426;SDS011;46274;47.168;27.604;2023-04-01T19:26:56;5.57;;;2.33;;
60426;SDS011;46274;47.168;27.604;2023-04-01T19:40:51;5.77;;;1.80;;
60426;SDS011;46274;47.168;27.604;2023-04-01T20:16:10;7.13;;;3.27;;
60426;SDS011;46274;47.168;27.604;2023-04-01T20:23:23;7.27;;;3.53;;
60426;SDS011;46274;47.168;27.604;2023-04-01T21:37:54;10.90;;;3.40;;
60426;SDS011;46274;47.168;27.604;2023-04-01T21:44:55;6.13;;;3.13;;
60426;SDS011;46274;47.168;27.604;2023-04-01T22:17:28;6.60;;;3.20;;
60426;SDS011;46274;47.168;27.604;2023-04-01T22:23:59;5.30;;;2.97;;
60426;SDS011;46274;47.168;27.604;2023-04-01T22:30:27;5.50;;;3.30;;
60426;SDS011;46274;47.168;27.604;2023-04-01T22:43:38;7.07;;;3.97;;
60426;SDS011;46274;47.168;27.604;2023-04-01T22:57:14;10.85;;;6.07;;
60426;SDS011;46274;47.168;27.604;2023-04-01T23:04:07;7.63;;;4.73;;
60426;SDS011;46274;47.168;27.604;2023-04-01T23:37:00;6.27;;;3.50;;
60426;SDS011;46274;47.168;27.604;2023-04-01T23:43:26;8.07;;;4.07;;
60426;SDS011;46274;47.168;27.604;2023-04-01T23:49:51;9.63;;;4.50;;
60426;SDS011;46274;47.168;27.604;2023-04-01T23:56:18;8.17;;;4.70;;
